Impacts METAR Board
IDs:

KSTL - St Louis/Lambert Int, MO, US

Updated at: 1500 UTC 26 Apr 2018
Potential Impact None Slight Moderate High
Time 26/03Z 26/04Z 26/05Z 26/06Z 26/07Z 26/08Z 26/09Z 26/10Z 26/11Z 26/12Z 26/13Z 26/14Z 26/15Z
Temp60 59 58 56 56 53 53 53 53 52 52 55 59
Dewpt47 45 44 46 45 48 45 44 43 43 43 40 36
Altim29.97 29.96 29.96 29.95 29.93 29.92 29.91 29.91 29.91 29.95 29.98 29.97 29.98
VIS10 9 10 10 10 10 10 10 10 10 10 10 10
CIG65 48 55 80 90 130 90 180 150 150 85 -- --
CoverOVCOVCOVCOVCOVCOVCBKNOVCBKNBKNBKNSCTSCT
FltCatVFRVFRVFRVFRVFRVFRVFRVFRVFRVFRVFRVFRVFR
WX-RA-RA-----RA----------------
WDir30033032031034003400404080100100
WSpd6 5 4 4 3 0 5 0 4 5 6 8 6
WGst-- -- -- -- -- -- -- -- -- -- -- -- --
Raw hourly METARs
KSTL 260251Z 30006KT 10SM -RA FEW050 BKN065 OVC110 16/08 A2997 RMK AO2 RAB47 SLP146 P0000 60000 T01560083 53002
KSTL 260351Z 33005KT 9SM -RA OVC048 15/07 A2996 RMK AO2 SLP142 P0000 T01500072
KSTL 260451Z 32004KT 10SM FEW045 BKN055 OVC065 14/07 A2996 RMK AO2 RAE20 SLP141 P0000 T01440067
KSTL 260551Z 31004KT 10SM SCT060 BKN080 OVC095 13/08 A2995 RMK AO2 RAB18E49 SLP137 P0000 60000 T01330078 10172 20133 401890083 58009
KSTL 260651Z 34003KT 10SM -RA BKN090 OVC200 13/07 A2993 RMK AO2 RAB41 SLP132 P0000 T01330072
KSTL 260751Z 00000KT 10SM FEW070 SCT090 BKN130 OVC200 12/09 A2992 RMK AO2 RAE46 SLP128 P0000 T01170089
KSTL 260851Z 34005KT 10SM FEW055 BKN090 BKN130 BKN200 12/07 A2991 RMK AO2 SLP126 60000 T01170072 56011
KSTL 260951Z 00000KT 10SM FEW100 OVC180 12/07 A2991 RMK AO2 SLP124 T01170067
KSTL 261051Z 04004KT 10SM FEW090 BKN150 BKN200 12/06 A2991 RMK AO2 SLP126 T01170061
KSTL 261151Z 04005KT 10SM SCT055 BKN150 11/06 A2995 RMK AO2 SLP140 60000 T01110061 10133 20100 53014
KSTL 261251Z 08006KT 10SM SCT055 BKN085 BKN150 11/06 A2998 RMK AO2 SLP149 T01110061
KSTL 261351Z 10008KT 10SM FEW120 SCT250 13/04 A2997 RMK AO2 SLP147 T01280044
KSTL 261451Z 10006KT 10SM FEW120 SCT250 15/02 A2998 RMK AO2 SLP147 T01500022 51007



Page loaded:  15:11 UTC  |   08:11 AM Pacific  |   09:11 AM Mountain  |   10:11 AM Central  |   11:11 AM Eastern

 

ADVISORIES

FORECASTS

FORECASTS

OBSERVATIONS

USER TOOLS

ABOUT US